All
Enua Airport (Atiu (Enua Manu)) AIU Weather
|
Atiu (Enua Manu) (AIU / NCAT)
Clear skies
Calm winds |
|
78 °F |
There is no TAF data available at AIU or any nearby airports.
Recent AIU METAR history
| Date | Time (-10) | Flight Rules | Wind Dir. | Speed | Type | Height AGL (ft) | Visibility | Temp (°C) | Temp (°F) | Dew Point (°C) | Dew Point (°F) | Rel. Humid. | Pressure | Density Altitude | Remarks |
|---|---|---|---|---|---|---|---|---|---|---|---|---|---|---|---|
| 02-May | 07:00PM | n/a | 300° | 3 kt | Missing | 26° | 78° | 24° | 75° | 89% | 1009 mb | 1,495 ft | |||
| 02-May | 06:00PM | n/a | 320° | 3 kt | Missing | 26° | 78° | 24° | 75° | 89% | 1009 mb | 1,495 ft | |||
| 02-May | 05:00PM | n/a | 350° | 6 kt | Missing | 27° | 80° | 24° | 75° | 84% | 1009 mb | 1,615 ft | |||
| 02-May | 04:00PM | n/a | 360° | 5 kt | Missing | 27° | 80° | 23° | 73° | 79% | 1009 mb | 1,615 ft | |||
| 02-May | 03:00PM | n/a | 360° | 4 kt | Missing | 27° | 80° | 24° | 75° | 84% | 1009 mb | 1,615 ft | |||
| 02-May | 02:00PM | n/a | 340° | 4 kt | Missing | 28° | 82° | 25° | 77° | 84% | 1010 mb | 1,706 ft | |||
| 02-May | 01:00PM | n/a | 20° | 6 kt | Missing | 28° | 82° | 24° | 75° | 79% | 1010 mb | 1,706 ft | |||
| 02-May | 12:00PM | n/a | 30° | 7 kt | Missing | 28° | 82° | 25° | 77° | 84% | 1011 mb | 1,676 ft | |||
| 02-May | 11:00AM | n/a | 40° | 7 kt | Missing | 28° | 82° | 25° | 77° | 84% | 1011 mb | 1,676 ft | |||
| 02-May | 10:00AM | n/a | 80° | 2 kt | Missing | 28° | 82° | 25° | 77° | 84% | 1011 mb | 1,676 ft | |||
| 02-May | 09:00AM | n/a | Variable | 1 kt | Missing | 27° | 80° | 25° | 77° | 89% | 1011 mb | 1,556 ft | |||
| 02-May | 08:00AM | n/a | Variable | 1 kt | Missing | 24° | 75° | 24° | 75° | 100% | 1010 mb | 1,226 ft | |||
| 02-May | 07:00AM | n/a | 160° | 1 kt | Missing | 24° | 75° | 24° | 75° | 100% | 1009 mb | 1,255 ft | |||
| 02-May | 06:00AM | n/a | 190° | 2 kt | Missing | 24° | 75° | 24° | 75° | 100% | 1009 mb | 1,255 ft | |||
| 02-May | 05:00AM | n/a | 230° | 1 kt | Missing | 25° | 77° | 24° | 75° | 94% | 1009 mb | 1,375 ft | |||
| 02-May | 04:00AM | n/a | 310° | 2 kt | Missing | 25° | 77° | 25° | 77° | 100% | 1009 mb | 1,375 ft | |||
| 02-May | 03:00AM | n/a | 120° | 1 kt | Missing | 25° | 77° | 24° | 75° | 94% | 1009 mb | 1,375 ft | |||
| 02-May | 02:00AM | n/a | 90° | 1 kt | Missing | 25° | 77° | 24° | 75° | 94% | 1010 mb | 1,346 ft | |||
| 02-May | 01:00AM | n/a | 40° | 2 kt | Missing | 25° | 77° | 24° | 75° | 94% | 1010 mb | 1,346 ft | |||
| 02-May | 12:00AM | n/a | 60° | 1 kt | Missing | 25° | 77° | 23° | 73° | 89% | 1010 mb | 1,346 ft | |||
| 01-May | 11:00PM | n/a | 30° | 2 kt | Missing | 25° | 77° | 23° | 73° | 89% | 1011 mb | 1,316 ft | |||
| 01-May | 10:00PM | n/a | 100° | 1 kt | Missing | 25° | 77° | 24° | 75° | 94% | 1010 mb | 1,346 ft | |||
| 01-May | 09:00PM | n/a | 240° | kt | Missing | 25° | 77° | 24° | 75° | 94% | 1010 mb | 1,346 ft | |||
| 01-May | 08:00PM | n/a | 80° | 1 kt | Missing | 26° | 78° | 25° | 77° | 94% | 1011 mb | 1,436 ft |
Login
| Your browser is unsupported. upgrade your browser |
